LSZL Airport Information

Runway Information
Runway 08C Length 2297 ft width 98 ft
Elevation 0 ft Threshold 0 ft Heading 0
Runway 26C Length 2297 ft Width 98 ft
Elevation 0 ft Threshold 0 ft Heading 0
Runway 08L Length 2625 ft width 75 ft
Elevation 650 ft Threshold 0 ft Heading 0
Runway 26R Length 2625 ft Width 75 ft
Elevation 650 ft Threshold 0 ft Heading 0
Airport Frequencies
Airport Navaids
Airport Weather Information & NOTAM
ADDS - METARS form results

(0153 UTC 19 January 2018)
 
METAR text: LSZL 190150Z AUTO VRB01KT 9999NDV NCD M01/M02 Q1010 RMK
Conditions at: LSZL (LOCARNO , CH) observed 0150 UTC 19 January 2018
Temperature: -1.0°C (30°F)
Dewpoint: -2.0°C (28°F) [RH = 93%]
Pressure (altimeter): 29.82 inches Hg (1010.0 mb)
Winds: variable direction winds at 1 MPH (1 knots; 0.5 m/s)
Visibility: missing
Ceiling: at least 12,000 feet AGL
Clouds: sky clear below 12,000 feet AGL
Weather: no significant weather observed at this time